Time;durP1;ratioP1;P1;durP2;ratioP2;P2;SDS_P1;SDS_P2;PMS_P1;PMS_P2;Temp;Humidity;BMP_temperature;BMP_pressure;BME280_temperature;BME280_humidity;BME280_pressure;Samples;Min_cycle;Max_cycle;Signal;HPM_P1;HPM_P2
2022/11/13 00:02:09;;;;;;;13.98;6.43;;;3.90;99.90;;;;;;5072301;28;20044;-77
2022/11/13 00:04:34;;;;;;;7.90;4.40;;;4.10;99.90;;;;;;5072437;28;20076;-77
2022/11/13 00:07:00;;;;;;;9.30;5.25;;;4.00;99.90;;;;;;5055185;28;20041;-77
2022/11/13 00:09:26;;;;;;;5.45;3.90;;;4.20;99.90;;;;;;5055849;28;20546;-78
2022/11/13 00:11:52;;;;;;;9.07;4.70;;;4.80;99.90;;;;;;5055465;28;20059;-78
2022/11/13 00:14:17;;;;;;;7.85;4.68;;;4.00;99.90;;;;;;5055927;28;20135;-79
2022/11/13 00:16:43;;;;;;;14.75;6.32;;;4.10;99.90;;;;;;5055500;28;20388;-79
2022/11/13 00:19:09;;;;;;;8.70;4.35;;;4.10;99.90;;;;;;5071980;28;20044;-79
2022/11/13 00:21:34;;;;;;;10.02;4.72;;;4.10;99.90;;;;;;5071496;28;20048;-79
2022/11/13 00:24:00;;;;;;;8.15;4.75;;;4.10;99.90;;;;;;5072386;28;20084;-79
2022/11/13 00:26:28;;;;;;;8.65;4.63;;;4.10;99.90;;;;;;5054719;28;20055;-79
2022/11/13 00:29:00;;;;;;;11.38;5.53;;;4.10;99.90;;;;;;5054867;28;20055;-79
2022/11/13 00:31:26;;;;;;;15.45;7.45;;;4.10;99.90;;;;;;5071791;28;20495;-79
2022/11/13 00:33:53;;;;;;;21.85;8.35;;;4.70;99.90;;;;;;5055369;28;20087;-79
2022/11/13 00:36:24;;;;;;;16.60;7.65;;;4.10;99.90;;;;;;5071883;28;20040;-79
2022/11/13 00:38:50;;;;;;;13.98;6.90;;;4.30;99.90;;;;;;5071398;28;20047;-79
2022/11/13 00:41:16;;;;;;;15.40;6.72;;;4.60;99.90;;;;;;5071444;28;20045;-79
2022/11/13 00:43:42;;;;;;;16.05;7.25;;;4.40;99.90;;;;;;5055137;28;20047;-79
2022/11/13 00:46:08;;;;;;;12.45;7.18;;;4.40;99.90;;;;;;5054794;28;20396;-79
2022/11/13 00:48:35;;;;;;;15.82;7.80;;;4.60;99.90;;;;;;5071372;28;20036;-79
2022/11/13 00:51:00;;;;;;;12.52;7.43;;;4.70;99.90;;;;;;5071717;28;20079;-79
2022/11/13 00:53:26;;;;;;;16.00;7.13;;;4.80;99.90;;;;;;5072079;28;20511;-79
2022/11/13 00:55:52;;;;;;;11.68;6.57;;;5.00;99.90;;;;;;5071475;28;20093;-79
2022/11/13 00:58:18;;;;;;;12.15;6.78;;;5.00;99.90;;;;;;5038055;28;20131;-79
2022/11/13 01:00:45;;;;;;;13.82;6.45;;;5.10;99.90;;;;;;5055170;28;20179;-79
2022/11/13 01:03:12;;;;;;;9.00;5.28;;;5.20;99.90;;;;;;5072912;22;20049;-79
2022/11/13 01:05:43;;;;;;;10.88;5.82;;;5.20;99.90;;;;;;5031495;28;20095;-79
2022/11/13 01:08:10;;;;;;;10.48;5.80;;;5.20;99.90;;;;;;5035563;28;20049;-79
2022/11/13 01:10:40;;;;;;;12.73;7.53;;;6.00;99.90;;;;;;5035752;28;20048;-79
2022/11/13 01:13:05;;;;;;;12.20;6.22;;;5.50;99.90;;;;;;5035469;28;20064;-79
2022/11/13 01:15:31;;;;;;;11.52;7.20;;;5.90;99.90;;;;;;5002155;28;20134;-79
2022/11/13 01:17:57;;;;;;;10.45;6.07;;;5.20;99.90;;;;;;5051829;28;20049;-77
2022/11/13 01:20:24;;;;;;;17.70;6.88;;;5.20;99.90;;;;;;5051445;28;20048;-77
2022/11/13 01:22:50;;;;;;;13.98;7.55;;;5.40;99.90;;;;;;5027369;28;20052;-77
2022/11/13 01:25:17;;;;;;;10.02;6.07;;;5.30;99.90;;;;;;5051425;28;20041;-77
2022/11/13 01:27:43;;;;;;;8.25;5.47;;;5.30;99.90;;;;;;5034706;28;20532;-77
2022/11/13 01:30:09;;;;;;;9.13;5.80;;;5.30;99.90;;;;;;5032749;28;20124;-77
2022/11/13 01:32:34;;;;;;;10.80;5.93;;;5.30;99.90;;;;;;5046602;28;20123;-77
2022/11/13 01:35:00;;;;;;;7.82;5.28;;;5.20;99.90;;;;;;5050861;28;20115;-77
2022/11/13 01:37:26;;;;;;;9.88;5.47;;;5.20;99.90;;;;;;5051312;28;20036;-77
2022/11/13 01:39:52;;;;;;;10.40;5.05;;;5.50;99.90;;;;;;5034722;28;20043;-77
2022/11/13 01:42:18;;;;;;;11.15;4.95;;;5.20;99.90;;;;;;5026752;28;20033;-77
2022/11/13 01:44:50;;;;;;;7.65;4.90;;;5.20;99.90;;;;;;5049886;28;20045;-77
2022/11/13 01:47:16;;;;;;;7.70;4.28;;;5.80;99.90;;;;;;5034554;28;20052;-77
2022/11/13 01:49:44;;;;;;;9.20;4.60;;;5.20;99.90;;;;;;5034879;28;20098;-78
2022/11/13 01:52:15;;;;;;;9.98;6.80;;;5.60;99.90;;;;;;5035531;28;20571;-78
2022/11/13 01:54:45;;;;;;;7.68;4.82;;;5.20;99.90;;;;;;5036992;28;20033;-79
2022/11/13 01:57:12;;;;;;;10.20;5.63;;;5.20;99.90;;;;;;5038098;28;20481;-79
2022/11/13 01:59:40;;;;;;;11.93;6.40;;;5.20;99.90;;;;;;5038201;28;20048;-79
2022/11/13 02:02:06;;;;;;;10.98;6.13;;;5.20;99.90;;;;;;5038905;28;20041;-79
2022/11/13 02:04:33;;;;;;;12.55;5.50;;;5.30;99.90;;;;;;5048715;28;20408;-79
2022/11/13 02:07:03;;;;;;;11.35;5.85;;;5.20;99.90;;;;;;5054461;28;20047;-79
2022/11/13 02:09:43;;;;;;;10.27;5.35;;;5.30;99.90;;;;;;5054726;28;20042;-79
2022/11/13 02:12:22;;;;;;;9.40;5.90;;;5.20;99.90;;;;;;5051911;28;20037;-79
2022/11/13 02:14:52;;;;;;;9.23;5.15;;;5.20;99.90;;;;;;5032552;28;20049;-79
2022/11/13 02:17:24;;;;;;;8.82;4.55;;;5.20;99.90;;;;;;5054186;28;20102;-79
2022/11/13 02:19:52;;;;;;;9.20;5.50;;;5.20;99.90;;;;;;5037894;28;20049;-79
2022/11/13 02:22:43;;;;;;;9.13;5.80;;;5.50;99.90;;;;;;5053514;28;20044;-79
2022/11/13 02:25:10;;;;;;;9.82;6.10;;;5.40;99.90;;;;;;5038833;28;20084;-77
2022/11/13 02:27:41;;;;;;;9.85;6.15;;;5.20;99.90;;;;;;5037520;28;20056;-77
2022/11/13 02:30:36;;;;;;;9.02;5.18;;;5.30;99.90;;;;;;5021252;28;20041;-77
2022/11/13 02:33:25;;;;;;;8.70;5.03;;;5.30;99.90;;;;;;5021466;28;20049;-77
2022/11/13 02:35:51;;;;;;;9.00;5.63;;;5.30;99.90;;;;;;5052455;28;20049;-77
2022/11/13 02:38:17;;;;;;;9.90;6.35;;;5.30;99.90;;;;;;5053910;28;20045;-77
2022/11/13 02:40:43;;;;;;;10.73;6.03;;;5.30;99.90;;;;;;5054180;28;20041;-79
2022/11/13 02:43:08;;;;;;;12.38;6.68;;;5.30;99.90;;;;;;5046681;28;20045;-79
2022/11/13 02:45:34;;;;;;;11.85;5.50;;;5.60;99.90;;;;;;5011823;28;20033;-79
2022/11/13 02:48:00;;;;;;;10.55;5.68;;;5.30;99.90;;;;;;5037141;28;20055;-79
2022/11/13 02:50:26;;;;;;;13.52;6.28;;;5.40;99.90;;;;;;5033778;28;20106;-79
2022/11/13 02:52:52;;;;;;;11.38;6.00;;;5.30;99.90;;;;;;5053271;28;20040;-79
2022/11/13 02:55:17;;;;;;;8.73;5.00;;;5.30;99.90;;;;;;5053740;28;20048;-79
2022/11/13 02:57:43;;;;;;;7.50;5.30;;;5.30;99.90;;;;;;5020584;28;20170;-77
2022/11/13 03:00:10;;;;;;;11.55;6.00;;;5.50;99.90;;;;;;5053835;28;20041;-77
2022/11/13 03:02:35;;;;;;;9.63;5.03;;;5.30;99.90;;;;;;5021352;28;20124;-77
2022/11/13 03:05:01;;;;;;;8.82;5.10;;;5.30;99.90;;;;;;5034869;28;20092;-77
2022/11/13 03:07:27;;;;;;;7.85;4.63;;;5.30;99.90;;;;;;5053470;28;20087;-77
2022/11/13 03:09:52;;;;;;;8.70;5.35;;;5.30;99.90;;;;;;5053412;28;20041;-77
2022/11/13 03:12:18;;;;;;;8.43;5.10;;;5.90;99.90;;;;;;5053224;28;20059;-77
2022/11/13 03:14:44;;;;;;;11.65;6.70;;;5.30;99.90;;;;;;5045755;28;20504;-79
2022/11/13 03:17:10;;;;;;;8.80;5.30;;;5.50;99.90;;;;;;5036541;28;20132;-79
2022/11/13 03:19:36;;;;;;;11.10;6.63;;;5.30;99.90;;;;;;5053520;28;20044;-79
2022/11/13 03:22:01;;;;;;;13.45;6.80;;;5.40;99.90;;;;;;5053267;28;20492;-79
2022/11/13 03:24:27;;;;;;;10.98;6.45;;;5.40;99.90;;;;;;5053500;28;20040;-79
2022/11/13 03:26:52;;;;;;;11.82;6.18;;;5.80;99.90;;;;;;5053007;28;20508;-79
2022/11/13 03:29:18;;;;;;;10.70;5.68;;;5.40;99.90;;;;;;5036537;28;20400;-79
2022/11/13 03:31:44;;;;;;;9.75;5.63;;;5.40;99.90;;;;;;5049682;28;20099;-79
2022/11/13 03:34:10;;;;;;;11.52;6.82;;;5.40;99.90;;;;;;5036202;28;20377;-79
2022/11/13 03:36:35;;;;;;;12.40;6.18;;;5.80;99.90;;;;;;5037358;28;20052;-79
2022/11/13 03:39:02;;;;;;;9.73;5.53;;;5.40;99.90;;;;;;5052892;28;20045;-79
2022/11/13 03:41:27;;;;;;;10.70;6.30;;;5.40;99.90;;;;;;5036077;28;20037;-79
2022/11/13 03:43:53;;;;;;;10.90;5.50;;;5.40;99.90;;;;;;5036383;28;20045;-79
2022/11/13 03:46:18;;;;;;;8.60;4.93;;;5.40;99.90;;;;;;5035944;28;20048;-79
2022/11/13 03:48:44;;;;;;;10.23;6.32;;;6.60;99.90;;;;;;5052793;28;20045;-79
2022/11/13 03:51:10;;;;;;;11.32;7.28;;;5.40;99.90;;;;;;5052638;28;20067;-79
2022/11/13 03:53:36;;;;;;;12.60;6.85;;;5.50;99.90;;;;;;5035999;28;20544;-79
2022/11/13 03:56:01;;;;;;;12.18;7.15;;;5.50;99.90;;;;;;5004710;28;20033;-79
2022/11/13 03:58:27;;;;;;;10.68;6.63;;;5.50;99.90;;;;;;5019509;28;20044;-79
2022/11/13 04:00:54;;;;;;;11.25;7.25;;;6.10;99.90;;;;;;5052750;28;20082;-79
2022/11/13 04:03:20;;;;;;;12.05;7.43;;;5.70;99.90;;;;;;5018816;28;20140;-79
2022/11/13 04:05:48;;;;;;;13.85;7.60;;;5.50;99.90;;;;;;5052125;28;20457;-79
2022/11/13 04:08:14;;;;;;;14.15;7.18;;;5.60;99.90;;;;;;5036628;28;20052;-79
2022/11/13 04:10:40;;;;;;;11.95;6.38;;;5.50;99.90;;;;;;5019349;28;20041;-79
2022/11/13 04:13:06;;;;;;;9.93;5.90;;;5.50;99.90;;;;;;5035892;28;20041;-79
2022/11/13 04:15:32;;;;;;;8.10;5.57;;;5.70;99.90;;;;;;5051638;28;20496;-80
2022/11/13 04:17:58;;;;;;;10.63;5.50;;;5.50;99.90;;;;;;5036231;28;20052;-80
2022/11/13 04:20:26;;;;;;;9.50;5.55;;;5.50;99.90;;;;;;5035498;28;20041;-80
2022/11/13 04:22:53;;;;;;;12.68;7.15;;;5.50;99.90;;;;;;5035383;28;20047;-80
2022/11/13 04:25:18;;;;;;;14.73;8.15;;;5.40;99.90;;;;;;5035501;28;20048;-80
2022/11/13 04:27:44;;;;;;;11.73;7.40;;;5.50;99.90;;;;;;5018482;28;20041;-80
2022/11/13 04:30:10;;;;;;;14.32;7.53;;;5.40;99.90;;;;;;5052071;28;20041;-80
2022/11/13 04:32:36;;;;;;;12.38;7.38;;;5.50;99.90;;;;;;5035346;28;20037;-80
2022/11/13 04:35:02;;;;;;;11.93;7.38;;;6.20;99.90;;;;;;5034846;28;20094;-80
2022/11/13 04:37:28;;;;;;;12.85;6.63;;;5.50;99.90;;;;;;5035511;28;20053;-77
2022/11/13 04:39:53;;;;;;;11.07;6.80;;;5.50;99.90;;;;;;5051722;28;20532;-77
2022/11/13 04:45:03;;;;;;;10.30;6.07;;;5.50;99.90;;;;;;5051587;28;20048;-77
2022/11/13 04:47:29;;;;;;;10.98;5.95;;;5.40;99.90;;;;;;5047246;28;20507;-77
2022/11/13 04:49:55;;;;;;;15.68;7.10;;;5.40;99.90;;;;;;5050020;28;20037;-77
2022/11/13 04:52:20;;;;;;;13.50;7.82;;;5.40;99.90;;;;;;5018870;28;20041;-77
2022/11/13 04:54:46;;;;;;;13.70;7.75;;;5.50;99.90;;;;;;5024772;28;20045;-77
2022/11/13 04:57:12;;;;;;;14.57;7.75;;;5.50;99.90;;;;;;5027537;28;20041;-77
2022/11/13 04:59:37;;;;;;;13.63;7.28;;;5.50;99.90;;;;;;5030484;28;20131;-77
2022/11/13 05:02:03;;;;;;;18.65;9.43;;;5.50;99.90;;;;;;5018712;28;20048;-77
2022/11/13 05:04:29;;;;;;;15.73;9.02;;;5.60;99.90;;;;;;5051605;28;20064;-77
2022/11/13 05:06:54;;;;;;;13.45;8.25;;;5.60;99.90;;;;;;5051522;28;20032;-77
2022/11/13 05:09:20;;;;;;;17.13;8.60;;;5.70;99.90;;;;;;5051349;28;20045;-77
2022/11/13 05:11:46;;;;;;;11.85;7.25;;;5.70;99.90;;;;;;5034802;28;20029;-77
2022/11/13 05:14:12;;;;;;;15.02;8.40;;;5.80;99.90;;;;;;5018871;28;20041;-77
2022/11/13 05:16:38;;;;;;;14.43;8.52;;;5.70;99.90;;;;;;5051198;28;20091;-77
2022/11/13 05:19:05;;;;;;;15.75;8.57;;;5.60;99.90;;;;;;5051881;28;20071;-77
2022/11/13 05:21:38;;;;;;;13.60;6.80;;;5.60;99.90;;;;;;5040119;28;20409;-77
2022/11/13 05:24:04;;;;;;;17.45;7.70;;;5.60;99.90;;;;;;5034979;28;20081;-77
2022/11/13 05:26:30;;;;;;;10.75;6.40;;;5.60;99.90;;;;;;5034816;28;20052;-77
2022/11/13 05:29:00;;;;;;;10.50;5.70;;;5.70;99.90;;;;;;5035785;28;20103;-77
2022/11/13 05:31:26;;;;;;;9.98;5.60;;;5.40;99.90;;;;;;5053668;28;20041;-77
2022/11/13 05:33:52;;;;;;;9.95;5.80;;;5.70;99.90;;;;;;5055648;28;20127;-77
2022/11/13 05:36:19;;;;;;;10.20;6.22;;;5.30;99.90;;;;;;5042463;28;20124;-77
2022/11/13 05:38:45;;;;;;;11.68;6.15;;;5.30;99.90;;;;;;5038598;28;20523;-77
2022/11/13 05:41:17;;;;;;;11.18;5.47;;;5.20;99.90;;;;;;5029830;28;20068;-77
2022/11/13 05:43:43;;;;;;;12.05;6.13;;;5.10;99.90;;;;;;5038611;28;20451;-77
2022/11/13 05:46:19;;;;;;;9.27;5.47;;;5.10;99.90;;;;;;5021827;28;20045;-77
2022/11/13 05:48:45;;;;;;;10.55;6.63;;;5.00;99.90;;;;;;5022312;28;20389;-77
2022/11/13 05:51:14;;;;;;;10.32;5.45;;;5.00;99.90;;;;;;5041009;28;20136;-77
2022/11/13 05:53:40;;;;;;;8.40;5.43;;;4.90;99.90;;;;;;5054713;28;20459;-77
2022/11/13 05:56:18;;;;;;;9.82;5.43;;;4.80;99.90;;;;;;5038631;28;20040;-77
2022/11/13 05:58:45;;;;;;;8.07;5.32;;;4.20;99.90;;;;;;5027550;28;20041;-77
2022/11/13 06:01:24;;;;;;;9.82;6.47;;;4.70;99.90;;;;;;5024236;28;20033;-77
2022/11/13 06:03:50;;;;;;;11.50;5.75;;;4.70;99.90;;;;;;5049408;28;20087;-77
2022/11/13 06:06:18;;;;;;;13.18;7.00;;;4.70;99.90;;;;;;5038240;28;20122;-77
2022/11/13 06:08:46;;;;;;;10.65;6.18;;;4.60;99.90;;;;;;5054700;28;20167;-77
2022/11/13 06:11:14;;;;;;;13.05;6.95;;;4.60;99.90;;;;;;5037134;28;20044;-77
2022/11/13 06:13:40;;;;;;;13.15;7.70;;;4.90;99.90;;;;;;5047040;28;20040;-77
2022/11/13 06:16:11;;;;;;;14.27;7.10;;;4.90;99.90;;;;;;5021347;28;20037;-81
2022/11/13 06:18:38;;;;;;;10.90;6.55;;;4.60;99.90;;;;;;5038116;28;20051;-82
2022/11/13 06:21:07;;;;;;;11.30;5.97;;;4.60;99.90;;;;;;5021595;28;20081;-82
2022/11/13 06:23:35;;;;;;;14.93;7.25;;;4.50;99.90;;;;;;5050898;28;20095;-82
2022/11/13 06:26:25;;;;;;;12.52;6.53;;;4.60;99.90;;;;;;5047906;28;20083;-82
2022/11/13 06:28:51;;;;;;;9.85;6.20;;;4.50;99.90;;;;;;5037190;28;20076;-82
2022/11/13 06:31:19;;;;;;;13.15;7.30;;;4.50;99.90;;;;;;5037631;28;20068;-82
2022/11/13 06:33:45;;;;;;;12.63;6.22;;;4.50;99.90;;;;;;5038732;28;20116;-79
2022/11/13 06:36:20;;;;;;;11.77;6.07;;;4.50;99.90;;;;;;5053436;28;20072;-79
2022/11/13 06:38:47;;;;;;;9.88;5.88;;;4.50;99.90;;;;;;5034248;28;20053;-79
2022/11/13 06:41:15;;;;;;;9.90;5.55;;;4.40;99.90;;;;;;5049771;28;20106;-79
2022/11/13 06:43:42;;;;;;;8.43;5.20;;;4.40;99.90;;;;;;5051900;28;20507;-79
2022/11/13 06:46:17;;;;;;;9.23;4.97;;;4.30;99.90;;;;;;5053510;28;20040;-79
2022/11/13 06:48:43;;;;;;;11.68;5.20;;;4.20;99.90;;;;;;5038316;28;20048;-79
2022/11/13 06:51:15;;;;;;;8.73;5.47;;;4.20;99.90;;;;;;5020847;28;20045;-79
2022/11/13 06:53:42;;;;;;;10.15;5.70;;;4.20;99.90;;;;;;5020726;28;20044;-79
2022/11/13 06:56:08;;;;;;;14.20;6.03;;;4.40;99.90;;;;;;5037403;28;20131;-79
2022/11/13 06:58:34;;;;;;;10.30;5.03;;;4.20;99.90;;;;;;5037266;28;20064;-79
2022/11/13 07:01:14;;;;;;;9.98;5.97;;;4.20;99.90;;;;;;5039638;28;20128;-79
2022/11/13 07:03:40;;;;;;;10.63;5.50;;;4.20;99.90;;;;;;5035136;28;20064;-79
2022/11/13 07:06:13;;;;;;;16.42;6.50;;;3.60;99.90;;;;;;5033368;28;20037;-77
2022/11/13 07:08:43;;;;;;;10.25;5.65;;;4.20;99.90;;;;;;5036958;28;20040;-77
2022/11/13 07:11:13;;;;;;;10.80;6.47;;;4.20;99.90;;;;;;5042409;28;20045;-77
2022/11/13 07:13:39;;;;;;;8.05;4.72;;;4.20;99.90;;;;;;5023585;28;20131;-77
2022/11/13 07:16:07;;;;;;;9.65;6.20;;;4.20;99.90;;;;;;5038282;28;20088;-77
2022/11/13 07:18:33;;;;;;;9.90;5.40;;;4.20;99.90;;;;;;5041935;28;20083;-77
2022/11/13 07:21:05;;;;;;;8.88;5.15;;;4.20;99.90;;;;;;5037388;28;20079;-78
2022/11/13 07:23:31;;;;;;;7.13;4.63;;;4.20;99.90;;;;;;5052861;28;20041;-79
2022/11/13 07:25:57;;;;;;;9.23;5.30;;;4.60;99.90;;;;;;5027952;28;20048;-79
2022/11/13 07:28:22;;;;;;;10.63;6.07;;;4.80;99.90;;;;;;5052682;28;20036;-79
2022/11/13 07:30:48;;;;;;;10.13;6.00;;;4.50;99.90;;;;;;5057475;28;20073;-80
2022/11/13 07:33:14;;;;;;;13.77;7.20;;;5.10;99.90;;;;;;5018152;28;20490;-80
2022/11/13 07:35:40;;;;;;;13.52;6.93;;;4.90;99.90;;;;;;5052918;28;20040;-80
2022/11/13 07:38:05;;;;;;;12.82;7.03;;;5.30;99.90;;;;;;5036390;28;20392;-80
2022/11/13 07:40:31;;;;;;;12.55;6.80;;;6.40;99.90;;;;;;5026649;28;20125;-82
2022/11/13 07:42:58;;;;;;;15.38;8.45;;;7.50;99.90;;;;;;5041715;28;20396;-83
2022/11/13 07:45:25;;;;;;;12.40;7.50;;;7.70;99.90;;;;;;5036622;28;20037;-82
2022/11/13 07:47:50;;;;;;;15.07;8.48;;;8.40;99.90;;;;;;5037456;28;20136;-83
2022/11/13 07:50:16;;;;;;;16.25;7.68;;;8.90;99.90;;;;;;5019933;28;20144;-82
2022/11/13 07:52:42;;;;;;;11.60;6.80;;;9.10;99.90;;;;;;5019185;28;20037;-82
2022/11/13 07:55:08;;;;;;;9.95;6.00;;;9.90;99.90;;;;;;5003915;28;20041;-83
2022/11/13 07:57:33;;;;;;;12.90;7.22;;;10.00;99.90;;;;;;5036108;28;20063;-83
2022/11/13 07:59:59;;;;;;;11.77;7.22;;;10.20;99.90;;;;;;5036782;28;20053;-80
2022/11/13 08:02:25;;;;;;;9.57;6.05;;;10.20;99.90;;;;;;5035854;28;20385;-81
2022/11/13 08:04:50;;;;;;;10.45;5.95;;;10.50;99.90;;;;;;5019770;28;20437;-82
2022/11/13 08:07:16;;;;;;;8.95;5.45;;;10.90;99.90;;;;;;5019790;28;20128;-82
2022/11/13 08:09:42;;;;;;;10.40;6.03;;;11.90;99.90;;;;;;5031506;28;20041;-82
2022/11/13 08:12:08;;;;;;;11.40;6.40;;;12.30;99.90;;;;;;5031860;28;20556;-83
2022/11/13 08:14:33;;;;;;;9.02;5.05;;;12.40;99.90;;;;;;5052358;28;20044;-82
2022/11/13 08:16:59;;;;;;;9.55;5.88;;;12.80;99.90;;;;;;5036022;28;20048;-82
2022/11/13 08:19:25;;;;;;;9.10;5.03;;;13.10;99.90;;;;;;5036583;28;20179;-82
2022/11/13 08:21:50;;;;;;;10.52;6.30;;;13.60;99.90;;;;;;5042717;28;20401;-82
2022/11/13 08:24:16;;;;;;;9.43;5.10;;;;;;;;;;5019136;28;20394;-82
2022/11/13 08:26:42;;;;;;;9.77;5.28;;;;;;;;;;5036095;28;20461;-82
2022/11/13 08:29:08;;;;;;;6.72;4.35;;;15.40;99.90;;;;;;5019674;28;20044;-82
2022/11/13 08:31:34;;;;;;;8.48;4.63;;;15.70;99.90;;;;;;5052356;28;20033;-80
2022/11/13 08:33:59;;;;;;;9.82;4.88;;;16.20;99.90;;;;;;5019304;28;20102;-80
2022/11/13 08:36:25;;;;;;;9.30;4.45;;;17.40;99.90;;;;;;5031769;28;20041;-81
2022/11/13 08:38:51;;;;;;;8.23;4.70;;;;;;;;;;5036037;28;20477;-81
2022/11/13 08:41:17;;;;;;;6.97;4.05;;;;;;;;;;5051863;28;20045;-80
2022/11/13 08:43:43;;;;;;;6.82;3.63;;;;;;;;;;5035457;28;20551;-81
2022/11/13 08:46:09;;;;;;;6.95;4.05;;;;;;;;;;5035252;28;20120;-82
2022/11/13 08:48:36;;;;;;;7.53;4.32;;;;;;;;;;5035102;28;20095;-82
2022/11/13 08:51:02;;;;;;;6.40;4.22;;;;;;;;;;5035172;28;20396;-83
2022/11/13 08:53:28;;;;;;;6.32;4.30;;;;;;;;;;5002877;28;20119;-83
2022/11/13 08:55:54;;;;;;;6.57;3.85;;;;;;;;;;5035851;28;20087;-84
2022/11/13 08:58:20;;;;;;;5.63;4.00;;;;;;;;;;5034541;28;20041;-84
2022/11/13 09:00:46;;;;;;;7.55;4.03;;;;;;;;;;5031711;28;20052;-82
2022/11/13 09:03:12;;;;;;;5.95;3.97;;;21.00;94.40;;;;;;5033228;28;20085;-83
2022/11/13 09:05:38;;;;;;;6.95;4.40;;;20.70;94.10;;;;;;5046672;28;20531;-83
2022/11/13 09:08:05;;;;;;;8.20;4.00;;;19.80;95.50;;;;;;5039421;28;20133;-83
2022/11/13 09:10:30;;;;;;;5.32;3.67;;;18.50;97.90;;;;;;5039225;28;20044;-83
2022/11/13 09:13:02;;;;;;;6.80;4.32;;;18.50;98.70;;;;;;5023060;28;20067;-83
2022/11/13 09:15:29;;;;;;;7.50;3.70;;;18.00;98.90;;;;;;5039272;28;20125;-83
2022/11/13 09:18:00;;;;;;;6.50;3.78;;;16.10;99.90;;;;;;5023060;28;20510;-83
2022/11/13 09:20:27;;;;;;;7.25;3.97;;;16.10;99.90;;;;;;5039357;28;20397;-82
2022/11/13 09:22:57;;;;;;;6.38;3.70;;;;;;;;;;5039105;28;20492;-82
2022/11/13 09:25:24;;;;;;;6.45;4.32;;;;;;;;;;5040946;28;20487;-82
2022/11/13 09:27:58;;;;;;;6.22;3.78;;;14.10;99.90;;;;;;5038978;28;20408;-81
2022/11/13 09:30:24;;;;;;;6.63;4.22;;;13.80;99.90;;;;;;5035672;28;20045;-82
2022/11/13 09:32:57;;;;;;;8.30;4.63;;;13.50;99.90;;;;;;5035852;28;20049;-81
2022/11/13 09:35:33;;;;;;;7.72;4.53;;;13.30;99.90;;;;;;5047811;28;20071;-81
2022/11/13 09:38:06;;;;;;;7.35;4.28;;;13.20;99.90;;;;;;5055815;28;20110;-79
2022/11/13 09:40:52;;;;;;;7.45;4.50;;;12.80;99.90;;;;;;5039224;28;20076;-79
2022/11/13 09:43:31;;;;;;;7.50;4.05;;;12.60;99.90;;;;;;5055970;28;20049;-79
2022/11/13 09:46:10;;;;;;;6.90;4.18;;;12.40;99.90;;;;;;5052542;28;20048;-79
2022/11/13 09:48:40;;;;;;;7.60;4.07;;;12.40;99.90;;;;;;5037642;28;20068;-81
2022/11/13 09:51:14;;;;;;;9.38;4.38;;;12.40;99.90;;;;;;5043296;28;20092;-81
2022/11/13 09:53:40;;;;;;;7.75;4.88;;;12.30;99.90;;;;;;5039328;28;20037;-82
2022/11/13 09:56:26;;;;;;;10.07;3.92;;;12.50;99.90;;;;;;5048779;28;20078;-81
2022/11/13 09:58:59;;;;;;;6.93;4.25;;;12.80;99.90;;;;;;5038856;28;20369;-81
2022/11/13 10:01:47;;;;;;;8.07;4.50;;;12.70;99.90;;;;;;5055211;28;20494;-81
2022/11/13 10:04:23;;;;;;;7.80;4.68;;;12.80;99.90;;;;;;5055147;28;20053;-81
2022/11/13 10:07:07;;;;;;;6.13;3.90;;;13.60;99.90;;;;;;5040264;28;20060;-81
2022/11/13 10:09:45;;;;;;;9.48;4.32;;;14.00;99.90;;;;;;5039040;28;20049;-80
2022/11/13 10:12:13;;;;;;;9.52;4.03;;;14.50;99.90;;;;;;5022359;28;20051;-79
2022/11/13 10:14:42;;;;;;;6.82;4.63;;;;;;;;;;5038205;28;20037;-80
2022/11/13 10:17:27;;;;;;;5.35;3.58;;;14.60;99.90;;;;;;5023843;28;20407;-79
2022/11/13 10:20:01;;;;;;;7.70;4.13;;;14.70;99.90;;;;;;5051709;28;20041;-80
2022/11/13 10:22:38;;;;;;;5.70;3.50;;;15.10;99.90;;;;;;5027513;28;20037;-80
2022/11/13 10:25:11;;;;;;;6.03;3.72;;;15.80;99.90;;;;;;5020130;28;20040;-80
2022/11/13 10:27:38;;;;;;;6.75;3.38;;;;;;;;;;5051575;28;20044;-80
2022/11/13 10:30:15;;;;;;;5.85;3.28;;;17.90;99.90;;;;;;5037891;28;20073;-79
2022/11/13 10:32:41;;;;;;;6.55;3.60;;;19.70;99.90;;;;;;5037972;28;20037;-80
2022/11/13 10:35:07;;;;;;;5.55;3.50;;;;;;;;;;5022094;28;20126;-80
2022/11/13 10:37:57;;;;;;;6.13;4.13;;;21.20;97.20;;;;;;5039635;28;20477;-80
2022/11/13 10:40:31;;;;;;;6.85;4.10;;;;;;;;;;5054703;28;20079;-80
2022/11/13 10:43:23;;;;;;;6.03;3.65;;;;;;;;;;5037863;28;20036;-80
2022/11/13 10:46:00;;;;;;;7.60;3.55;;;;;;;;;;5034902;28;20132;-80
2022/11/13 10:48:31;;;;;;;6.93;3.75;;;;;;;;;;5037325;28;20103;-80
2022/11/13 10:50:59;;;;;;;6.50;3.75;;;;;;;;;;5037725;28;20041;-81
2022/11/13 10:53:27;;;;;;;5.40;3.20;;;;;;;;;;5037476;28;20485;-81
2022/11/13 10:55:58;;;;;;;6.20;3.65;;;22.60;91.30;;;;;;5037749;28;20047;-80
2022/11/13 10:58:24;;;;;;;6.35;3.67;;;22.50;92.50;;;;;;5087121;28;20120;-80
2022/11/13 11:00:51;;;;;;;6.32;3.63;;;22.60;90.60;;;;;;5054659;28;20178;-82
2022/11/13 11:03:22;;;;;;;7.70;3.17;;;22.70;91.70;;;;;;5051200;28;20064;-82
2022/11/13 11:05:58;;;;;;;6.05;3.25;;;22.30;91.40;;;;;;5054446;28;20465;-82
2022/11/13 11:08:44;;;;;;;5.60;3.60;;;22.00;91.00;;;;;;5053978;28;20045;-82
2022/11/13 11:14:15;;;;;;;6.18;3.25;;;22.80;91.30;;;;;;5052278;28;20535;-82
2022/11/13 11:16:42;;;;;;;6.97;3.72;;;23.20;91.40;;;;;;5053939;28;20408;-82
2022/11/13 11:19:12;;;;;;;3.80;2.60;;;22.50;90.70;;;;;;5036892;28;20507;-82
2022/11/13 11:21:41;;;;;;;6.45;3.00;;;21.70;88.20;;;;;;5038119;28;20041;-82
2022/11/13 11:24:23;;;;;;;5.22;3.22;;;20.50;90.90;;;;;;5044269;28;20040;-82
2022/11/13 11:26:58;;;;;;;5.38;3.72;;;19.10;94.80;;;;;;5050787;28;20542;-82
2022/11/13 11:29:35;;;;;;;5.80;3.75;;;18.90;94.60;;;;;;5037068;28;20098;-82
2022/11/13 11:32:33;;;;;;;5.13;3.45;;;17.80;95.80;;;;;;5060743;28;20502;-84
2022/11/13 11:35:31;;;;;;;5.50;3.35;;;;;;;;;;5017278;28;20465;-84
2022/11/13 11:38:00;;;;;;;5.40;3.35;;;;;;;;;;5026301;28;20388;-84
2022/11/13 11:40:27;;;;;;;5.35;3.38;;;;;;;;;;5036645;28;20037;-84
2022/11/13 11:43:02;;;;;;;4.93;2.92;;;;;;;;;;5040756;28;20051;-84
2022/11/13 11:45:30;;;;;;;6.35;3.80;;;;;;;;;;5000312;28;20496;-84
2022/11/13 11:47:58;;;;;;;7.18;3.80;;;15.80;99.90;;;;;;5004071;28;20041;-84
2022/11/13 11:50:54;;;;;;;9.10;3.92;;;15.50;99.90;;;;;;5039720;28;20595;-84
2022/11/13 11:54:01;;;;;;;7.65;3.75;;;15.30;99.90;;;;;;5034766;28;20119;-84
2022/11/13 11:56:52;;;;;;;6.78;4.10;;;15.30;99.90;;;;;;5036604;28;20045;-84
2022/11/13 11:59:46;;;;;;;7.13;3.90;;;15.30;99.90;;;;;;5032060;28;20072;-84
2022/11/13 12:02:44;;;;;;;7.53;3.78;;;15.40;99.90;;;;;;5056134;28;20044;-84
2022/11/13 12:05:37;;;;;;;5.88;3.30;;;15.40;99.90;;;;;;5055676;28;20056;-84
2022/11/13 12:08:06;;;;;;;7.15;3.55;;;15.20;99.90;;;;;;5071918;28;20041;-81
2022/11/13 12:11:05;;;;;;;7.00;3.58;;;15.10;99.90;;;;;;5054181;28;20041;-81
2022/11/13 12:13:39;;;;;;;5.90;3.45;;;15.10;99.90;;;;;;5020340;28;20475;-81
2022/11/13 12:16:21;;;;;;;6.75;3.53;;;15.00;99.90;;;;;;5042080;28;20048;-81
2022/11/13 12:18:57;;;;;;;5.30;3.35;;;15.00;99.90;;;;;;5031865;28;20038;-81
2022/11/13 12:21:23;;;;;;;6.53;4.47;;;15.00;99.90;;;;;;5035309;28;20029;-81
2022/11/13 12:24:00;;;;;;;5.95;3.45;;;14.90;99.90;;;;;;5052538;28;20090;-81
2022/11/13 12:26:46;;;;;;;7.05;3.80;;;14.80;99.90;;;;;;5052469;28;20048;-81
2022/11/13 12:29:34;;;;;;;5.75;3.83;;;14.60;99.90;;;;;;5035975;28;20033;-81
2022/11/13 12:32:08;;;;;;;8.02;3.58;;;14.60;99.90;;;;;;5023004;28;20044;-81
2022/11/13 12:34:43;;;;;;;6.38;3.22;;;14.70;99.90;;;;;;5020071;28;20036;-82
2022/11/13 12:37:19;;;;;;;6.15;3.55;;;14.80;99.90;;;;;;5036608;28;20028;-83
2022/11/13 12:39:53;;;;;;;5.93;3.53;;;14.90;99.90;;;;;;5052563;28;20047;-82
2022/11/13 12:42:25;;;;;;;6.03;3.50;;;14.90;99.90;;;;;;5052261;28;20090;-79
2022/11/13 12:44:59;;;;;;;6.07;3.30;;;14.80;99.90;;;;;;5052029;28;20496;-79
2022/11/13 12:47:25;;;;;;;4.63;2.75;;;14.80;99.90;;;;;;5051024;28;20053;-79
2022/11/13 12:50:21;;;;;;;6.47;3.50;;;14.90;99.90;;;;;;5051746;28;20037;-79
2022/11/13 12:53:08;;;;;;;5.82;3.25;;;15.00;99.90;;;;;;5027167;28;20029;-80
2022/11/13 12:55:37;;;;;;;4.45;2.90;;;14.80;99.90;;;;;;5035979;28;20037;-79
2022/11/13 12:58:20;;;;;;;6.00;3.47;;;14.80;99.90;;;;;;5036009;28;20114;-81
2022/11/13 13:00:56;;;;;;;6.82;3.30;;;14.70;99.90;;;;;;5035614;28;20079;-81
2022/11/13 13:03:40;;;;;;;5.40;3.03;;;14.60;99.90;;;;;;5051719;28;20064;-81
2022/11/13 13:06:41;;;;;;;3.92;2.55;;;14.60;99.90;;;;;;5019524;28;20080;-81
2022/11/13 13:09:26;;;;;;;6.60;3.30;;;14.60;99.90;;;;;;5019321;28;20198;-79
2022/11/13 13:12:33;;;;;;;4.35;2.95;;;14.60;99.90;;;;;;5041932;28;20056;-79
2022/11/13 13:14:59;;;;;;;;;;;14.80;99.90;;;;;;5016467;28;20045;-81
2022/11/13 13:17:25;;;;;;;5.50;3.13;;;14.90;99.90;;;;;;5015823;28;19971;-82
2022/11/13 13:20:05;;;;;;;6.78;3.35;;;15.00;99.90;;;;;;5070847;23;20135;-82